sensor_id;sensor_type;location;lat;lon;timestamp;pressure;altitude;pressure_sealevel;temperature;humidity
75668;BME280;64266;48.798;44.756;2024-02-21T00:04:57;103203.59;;;-2.86;56.39
75668;BME280;64266;48.798;44.756;2024-02-21T00:10:01;103184.63;;;-2.69;56.80
75668;BME280;64266;48.798;44.756;2024-02-21T00:15:07;103209.88;;;-2.73;56.36
75668;BME280;64266;48.798;44.756;2024-02-21T00:20:10;103116.81;;;-3.55;55.91
75668;BME280;64266;48.798;44.756;2024-02-21T00:25:13;103215.22;;;-2.95;56.08
75668;BME280;64266;48.798;44.756;2024-02-21T00:30:16;103154.59;;;-3.31;56.36
75668;BME280;64266;48.798;44.756;2024-02-21T00:35:19;103145.81;;;-3.47;55.78
75668;BME280;64266;48.798;44.756;2024-02-21T00:40:22;103178.88;;;-2.95;56.63
75668;BME280;64266;48.798;44.756;2024-02-21T00:45:27;103146.19;;;-3.36;56.39
75668;BME280;64266;48.798;44.756;2024-02-21T00:50:30;103137.81;;;-3.61;55.82
75668;BME280;64266;48.798;44.756;2024-02-21T00:55:34;103133.94;;;-3.71;57.13
75668;BME280;64266;48.798;44.756;2024-02-21T01:00:37;103179.50;;;-3.66;56.68
75668;BME280;64266;48.798;44.756;2024-02-21T01:05:39;103135.91;;;-3.76;56.13
75668;BME280;64266;48.798;44.756;2024-02-21T01:10:42;103151.56;;;-3.59;56.00
75668;BME280;64266;48.798;44.756;2024-02-21T01:15:46;103139.53;;;-3.60;56.80
75668;BME280;64266;48.798;44.756;2024-02-21T01:20:49;103178.78;;;-3.49;56.03
75668;BME280;64266;48.798;44.756;2024-02-21T01:25:52;103150.22;;;-3.68;55.13
75668;BME280;64266;48.798;44.756;2024-02-21T01:30:55;103186.72;;;-3.72;55.78
75668;BME280;64266;48.798;44.756;2024-02-21T01:35:59;103194.34;;;-3.49;56.68
75668;BME280;64266;48.798;44.756;2024-02-21T01:41:02;103200.22;;;-3.46;55.96
75668;BME280;64266;48.798;44.756;2024-02-21T01:46:06;103168.84;;;-3.60;56.78
75668;BME280;64266;48.798;44.756;2024-02-21T01:51:10;103198.53;;;-3.26;56.62
75668;BME280;64266;48.798;44.756;2024-02-21T01:56:13;103205.09;;;-3.19;56.53
75668;BME280;64266;48.798;44.756;2024-02-21T02:01:16;103218.16;;;-3.21;56.12
75668;BME280;64266;48.798;44.756;2024-02-21T02:06:24;103200.28;;;-3.47;55.38
75668;BME280;64266;48.798;44.756;2024-02-21T02:11:28;103226.63;;;-3.36;54.74
75668;BME280;64266;48.798;44.756;2024-02-21T02:16:31;103140.97;;;-4.14;53.57
75668;BME280;64266;48.798;44.756;2024-02-21T02:21:39;103134.94;;;-4.14;54.94
75668;BME280;64266;48.798;44.756;2024-02-21T02:26:45;103231.09;;;-3.40;56.52
75668;BME280;64266;48.798;44.756;2024-02-21T02:31:49;103237.03;;;-3.38;56.43
75668;BME280;64266;48.798;44.756;2024-02-21T02:36:52;103146.81;;;-3.89;56.00
75668;BME280;64266;48.798;44.756;2024-02-21T02:41:57;103219.63;;;-3.54;55.08
75668;BME280;64266;48.798;44.756;2024-02-21T02:46:59;103179.59;;;-3.88;55.64
75668;BME280;64266;48.798;44.756;2024-02-21T02:52:04;103144.00;;;-4.24;55.30
75668;BME280;64266;48.798;44.756;2024-02-21T02:57:07;103248.53;;;-3.63;55.07
75668;BME280;64266;48.798;44.756;2024-02-21T03:02:10;103226.13;;;-3.85;53.34
75668;BME280;64266;48.798;44.756;2024-02-21T03:07:14;103222.75;;;-4.28;54.79
75668;BME280;64266;48.798;44.756;2024-02-21T03:12:17;103255.66;;;-3.89;54.58
75668;BME280;64266;48.798;44.756;2024-02-21T03:17:30;103214.88;;;-4.27;55.70
75668;BME280;64266;48.798;44.756;2024-02-21T03:22:34;103203.59;;;-4.46;54.78
75668;BME280;64266;48.798;44.756;2024-02-21T03:27:37;103244.34;;;-4.29;55.03
75668;BME280;64266;48.798;44.756;2024-02-21T03:32:40;103241.72;;;-4.28;55.53
75668;BME280;64266;48.798;44.756;2024-02-21T03:37:45;103231.00;;;-4.41;54.82
75668;BME280;64266;48.798;44.756;2024-02-21T03:42:49;103267.91;;;-4.14;54.40
75668;BME280;64266;48.798;44.756;2024-02-21T03:47:52;103228.41;;;-4.41;54.31
75668;BME280;64266;48.798;44.756;2024-02-21T03:52:55;103251.50;;;-4.36;55.65
75668;BME280;64266;48.798;44.756;2024-02-21T03:57:58;103195.72;;;-4.65;55.25
75668;BME280;64266;48.798;44.756;2024-02-21T04:03:00;103260.88;;;-4.55;55.69
75668;BME280;64266;48.798;44.756;2024-02-21T04:08:06;103247.94;;;-4.55;55.71
75668;BME280;64266;48.798;44.756;2024-02-21T04:13:10;103205.66;;;-4.99;54.59
75668;BME280;64266;48.798;44.756;2024-02-21T04:18:13;103255.00;;;-4.82;54.13
75668;BME280;64266;48.798;44.756;2024-02-21T04:23:18;103283.13;;;-4.50;55.15
75668;BME280;64266;48.798;44.756;2024-02-21T04:28:21;103257.06;;;-4.45;55.85
75668;BME280;64266;48.798;44.756;2024-02-21T04:33:24;103301.75;;;-4.40;53.40
75668;BME280;64266;48.798;44.756;2024-02-21T04:38:27;103227.72;;;-4.67;52.67
75668;BME280;64266;48.798;44.756;2024-02-21T04:43:30;103330.97;;;-3.93;55.03
75668;BME280;64266;48.798;44.756;2024-02-21T04:48:34;103277.78;;;-4.02;54.33
75668;BME280;64266;48.798;44.756;2024-02-21T04:53:37;103214.13;;;-4.29;52.05
75668;BME280;64266;48.798;44.756;2024-02-21T04:58:41;103326.97;;;-3.58;54.07
75668;BME280;64266;48.798;44.756;2024-02-21T05:03:44;103305.97;;;-3.72;53.90
75668;BME280;64266;48.798;44.756;2024-02-21T05:08:47;103313.03;;;-3.98;52.92
75668;BME280;64266;48.798;44.756;2024-02-21T05:13:50;103337.09;;;-3.94;52.79
75668;BME280;64266;48.798;44.756;2024-02-21T05:18:53;103254.44;;;-4.22;53.86
75668;BME280;64266;48.798;44.756;2024-02-21T05:23:57;103263.63;;;-4.15;52.94
75668;BME280;64266;48.798;44.756;2024-02-21T05:29:09;103246.03;;;-4.07;52.94
75668;BME280;64266;48.798;44.756;2024-02-21T05:34:19;103217.09;;;-4.18;53.13
75668;BME280;64266;48.798;44.756;2024-02-21T05:39:33;103244.22;;;-4.05;50.25
75668;BME280;64266;48.798;44.756;2024-02-21T05:44:44;103357.38;;;-3.62;51.45
75668;BME280;64266;48.798;44.756;2024-02-21T05:49:53;103316.97;;;-3.88;52.35
75668;BME280;64266;48.798;44.756;2024-02-21T05:54:57;103263.94;;;-3.80;50.81
75668;BME280;64266;48.798;44.756;2024-02-21T06:00:00;103307.94;;;-2.59;50.71
75668;BME280;64266;48.798;44.756;2024-02-21T06:05:14;103270.34;;;-2.34;48.96
75668;BME280;64266;48.798;44.756;2024-02-21T06:10:17;103334.97;;;-1.54;48.61
75668;BME280;64266;48.798;44.756;2024-02-21T06:15:20;103255.03;;;-2.40;47.56
75668;BME280;64266;48.798;44.756;2024-02-21T06:20:25;103350.75;;;-2.12;48.47
75668;BME280;64266;48.798;44.756;2024-02-21T06:25:29;103316.28;;;-2.15;48.07
75668;BME280;64266;48.798;44.756;2024-02-21T06:30:33;103343.38;;;-1.67;47.86
75668;BME280;64266;48.798;44.756;2024-02-21T06:35:37;103343.47;;;-1.51;47.45
75668;BME280;64266;48.798;44.756;2024-02-21T06:40:44;103341.16;;;-1.57;46.19
75668;BME280;64266;48.798;44.756;2024-02-21T06:45:52;103239.53;;;-2.05;46.26
75668;BME280;64266;48.798;44.756;2024-02-21T06:50:56;103329.38;;;-1.30;44.57
75668;BME280;64266;48.798;44.756;2024-02-21T06:55:58;103305.88;;;-1.28;43.48
75668;BME280;64266;48.798;44.756;2024-02-21T07:01:03;103288.38;;;-1.09;42.30
75668;BME280;64266;48.798;44.756;2024-02-21T07:06:07;103231.88;;;-1.40;42.28
75668;BME280;64266;48.798;44.756;2024-02-21T07:11:10;103293.38;;;-0.89;42.92
75668;BME280;64266;48.798;44.756;2024-02-21T07:16:17;103302.16;;;-1.07;42.70
75668;BME280;64266;48.798;44.756;2024-02-21T07:21:20;103282.00;;;-1.36;42.94
75668;BME280;64266;48.798;44.756;2024-02-21T07:26:25;103305.78;;;-1.44;43.96
75668;BME280;64266;48.798;44.756;2024-02-21T07:31:28;103330.34;;;-1.15;43.61
75668;BME280;64266;48.798;44.756;2024-02-21T07:36:31;103326.31;;;-1.38;43.60
75668;BME280;64266;48.798;44.756;2024-02-21T07:41:35;103336.31;;;-1.13;45.16
75668;BME280;64266;48.798;44.756;2024-02-21T07:46:38;103285.50;;;-1.72;44.61
75668;BME280;64266;48.798;44.756;2024-02-21T07:51:42;103287.81;;;-1.48;45.27
75668;BME280;64266;48.798;44.756;2024-02-21T07:56:48;103294.34;;;-1.07;45.37
75668;BME280;64266;48.798;44.756;2024-02-21T08:01:51;103317.34;;;-1.15;44.80
75668;BME280;64266;48.798;44.756;2024-02-21T08:06:54;103291.22;;;-1.14;45.78
75668;BME280;64266;48.798;44.756;2024-02-21T08:11:58;103280.22;;;-1.19;45.63
75668;BME280;64266;48.798;44.756;2024-02-21T08:17:01;103308.38;;;-1.10;45.04
75668;BME280;64266;48.798;44.756;2024-02-21T08:22:04;103313.06;;;-1.33;45.78
75668;BME280;64266;48.798;44.756;2024-02-21T08:27:09;103313.91;;;-1.50;45.59
75668;BME280;64266;48.798;44.756;2024-02-21T08:32:12;103285.66;;;-1.75;46.36
75668;BME280;64266;48.798;44.756;2024-02-21T08:37:15;103316.91;;;-1.23;46.31
75668;BME280;64266;48.798;44.756;2024-02-21T08:42:19;103269.63;;;-1.48;45.90
75668;BME280;64266;48.798;44.756;2024-02-21T08:47:22;103327.38;;;-1.25;45.35
75668;BME280;64266;48.798;44.756;2024-02-21T08:52:25;103306.63;;;-1.43;44.94
75668;BME280;64266;48.798;44.756;2024-02-21T08:57:28;103317.66;;;-1.38;45.70
75668;BME280;64266;48.798;44.756;2024-02-21T09:02:31;103321.34;;;-1.42;45.73
75668;BME280;64266;48.798;44.756;2024-02-21T09:07:36;103290.91;;;-1.57;46.80
75668;BME280;64266;48.798;44.756;2024-02-21T09:12:40;103309.78;;;-1.54;46.87
75668;BME280;64266;48.798;44.756;2024-02-21T09:17:44;103299.44;;;-1.55;46.91
75668;BME280;64266;48.798;44.756;2024-02-21T09:22:49;103236.41;;;-1.95;46.97
75668;BME280;64266;48.798;44.756;2024-02-21T09:27:54;103294.72;;;-1.65;46.90
75668;BME280;64266;48.798;44.756;2024-02-21T09:32:57;103230.81;;;-2.22;47.93
75668;BME280;64266;48.798;44.756;2024-02-21T09:38:02;103268.63;;;-1.80;47.76
75668;BME280;64266;48.798;44.756;2024-02-21T09:43:06;103285.44;;;-1.70;47.30
75668;BME280;64266;48.798;44.756;2024-02-21T09:48:37;103289.28;;;-1.60;47.74
75668;BME280;64266;48.798;44.756;2024-02-21T09:53:44;103281.16;;;-1.37;48.08
75668;BME280;64266;48.798;44.756;2024-02-21T09:59:03;103283.97;;;-1.24;49.21
75668;BME280;64266;48.798;44.756;2024-02-21T10:04:08;103248.16;;;-1.36;47.69
75668;BME280;64266;48.798;44.756;2024-02-21T10:09:22;103255.31;;;-1.57;48.37
75668;BME280;64266;48.798;44.756;2024-02-21T10:14:25;103211.25;;;-1.77;47.63
75668;BME280;64266;48.798;44.756;2024-02-21T10:19:31;103260.78;;;-1.29;48.97
75668;BME280;64266;48.798;44.756;2024-02-21T10:24:36;103245.19;;;-1.46;48.05
75668;BME280;64266;48.798;44.756;2024-02-21T10:29:48;103224.19;;;-1.76;49.02
75668;BME280;64266;48.798;44.756;2024-02-21T10:35:04;103210.78;;;-2.20;48.15
75668;BME280;64266;48.798;44.756;2024-02-21T10:40:08;103267.56;;;-1.76;50.75
75668;BME280;64266;48.798;44.756;2024-02-21T10:45:16;103263.66;;;-1.85;49.08
75668;BME280;64266;48.798;44.756;2024-02-21T10:50:21;103244.38;;;-1.81;49.26
75668;BME280;64266;48.798;44.756;2024-02-21T10:55:38;103256.47;;;-1.80;50.42
75668;BME280;64266;48.798;44.756;2024-02-21T11:00:44;103257.66;;;-2.04;49.74
75668;BME280;64266;48.798;44.756;2024-02-21T11:05:49;103225.06;;;-2.28;50.34
75668;BME280;64266;48.798;44.756;2024-02-21T11:10:59;103222.28;;;-2.06;51.12
75668;BME280;64266;48.798;44.756;2024-02-21T11:16:10;103247.06;;;-1.82;51.10
75668;BME280;64266;48.798;44.756;2024-02-21T11:21:16;103242.91;;;-1.69;49.92
75668;BME280;64266;48.798;44.756;2024-02-21T11:26:19;103236.25;;;-1.75;50.93
75668;BME280;64266;48.798;44.756;2024-02-21T11:31:22;103208.34;;;-1.88;50.43
75668;BME280;64266;48.798;44.756;2024-02-21T11:36:26;103173.34;;;-2.15;50.37
75668;BME280;64266;48.798;44.756;2024-02-21T11:41:31;103229.22;;;-1.73;50.12
75668;BME280;64266;48.798;44.756;2024-02-21T11:46:35;103231.38;;;-1.63;49.21
75668;BME280;64266;48.798;44.756;2024-02-21T11:51:38;103223.34;;;-1.76;49.81
75668;BME280;64266;48.798;44.756;2024-02-21T11:56:41;103231.97;;;-1.93;49.66
75668;BME280;64266;48.798;44.756;2024-02-21T12:01:46;103218.22;;;-1.95;50.98
75668;BME280;64266;48.798;44.756;2024-02-21T12:06:50;103197.00;;;-1.87;50.55
75668;BME280;64266;48.798;44.756;2024-02-21T12:12:05;103213.94;;;-1.79;50.01
75668;BME280;64266;48.798;44.756;2024-02-21T12:17:08;103190.53;;;-1.96;49.80
75668;BME280;64266;48.798;44.756;2024-02-21T12:22:18;103198.94;;;-2.08;50.64
75668;BME280;64266;48.798;44.756;2024-02-21T12:27:21;103232.16;;;-1.79;49.72
75668;BME280;64266;48.798;44.756;2024-02-21T12:32:26;103142.28;;;-2.53;49.41
75668;BME280;64266;48.798;44.756;2024-02-21T12:37:29;103251.16;;;-1.95;50.13
75668;BME280;64266;48.798;44.756;2024-02-21T12:42:33;103222.16;;;-2.22;50.19
75668;BME280;64266;48.798;44.756;2024-02-21T12:47:37;103232.75;;;-1.91;50.02
75668;BME280;64266;48.798;44.756;2024-02-21T12:52:42;103251.56;;;-1.69;49.05
75668;BME280;64266;48.798;44.756;2024-02-21T12:57:46;103234.75;;;-1.79;49.01
75668;BME280;64266;48.798;44.756;2024-02-21T13:02:49;103215.91;;;-1.84;49.98
75668;BME280;64266;48.798;44.756;2024-02-21T13:07:54;103212.03;;;-2.09;49.24
75668;BME280;64266;48.798;44.756;2024-02-21T13:12:58;103189.28;;;-2.06;49.72
75668;BME280;64266;48.798;44.756;2024-02-21T13:18:01;103187.88;;;-1.94;49.15
75668;BME280;64266;48.798;44.756;2024-02-21T13:23:05;103211.34;;;-1.79;49.39
75668;BME280;64266;48.798;44.756;2024-02-21T13:28:08;103172.78;;;-2.05;48.26
75668;BME280;64266;48.798;44.756;2024-02-21T13:33:13;103246.75;;;-1.76;48.33
75668;BME280;64266;48.798;44.756;2024-02-21T13:38:17;103248.41;;;-1.75;49.01
75668;BME280;64266;48.798;44.756;2024-02-21T13:43:23;103231.22;;;-1.95;49.20
75668;BME280;64266;48.798;44.756;2024-02-21T13:48:26;103131.78;;;-2.68;48.51
75668;BME280;64266;48.798;44.756;2024-02-21T13:53:33;103260.88;;;-1.99;48.57
75668;BME280;64266;48.798;44.756;2024-02-21T13:58:38;103165.59;;;-2.70;50.13
75668;BME280;64266;48.798;44.756;2024-02-21T14:03:41;103222.22;;;-2.59;50.00
75668;BME280;64266;48.798;44.756;2024-02-21T14:08:44;103251.78;;;-2.43;49.96
75668;BME280;64266;48.798;44.756;2024-02-21T14:13:48;103266.88;;;-2.51;50.56
75668;BME280;64266;48.798;44.756;2024-02-21T14:18:52;103253.53;;;-2.62;51.08
75668;BME280;64266;48.798;44.756;2024-02-21T14:23:57;103249.75;;;-2.74;51.70
75668;BME280;64266;48.798;44.756;2024-02-21T14:29:01;103228.84;;;-2.90;51.48
75668;BME280;64266;48.798;44.756;2024-02-21T14:34:06;103185.03;;;-3.35;51.55
75668;BME280;64266;48.798;44.756;2024-02-21T14:39:10;103231.19;;;-3.22;52.03
75668;BME280;64266;48.798;44.756;2024-02-21T14:44:14;103177.78;;;-3.86;52.52
75668;BME280;64266;48.798;44.756;2024-02-21T14:49:18;103261.50;;;-3.43;53.33
75668;BME280;64266;48.798;44.756;2024-02-21T14:54:23;103195.06;;;-3.66;52.98
75668;BME280;64266;48.798;44.756;2024-02-21T14:59:26;103247.22;;;-3.53;53.45
75668;BME280;64266;48.798;44.756;2024-02-21T15:04:36;103241.31;;;-3.57;52.10
75668;BME280;64266;48.798;44.756;2024-02-21T15:09:40;103213.22;;;-3.86;53.05
75668;BME280;64266;48.798;44.756;2024-02-21T15:14:43;103234.91;;;-3.68;54.20
75668;BME280;64266;48.798;44.756;2024-02-21T15:19:47;103264.03;;;-3.42;53.88
75668;BME280;64266;48.798;44.756;2024-02-21T15:24:50;103268.34;;;-3.22;51.85
75668;BME280;64266;48.798;44.756;2024-02-21T15:29:54;103241.91;;;-3.50;52.82
75668;BME280;64266;48.798;44.756;2024-02-21T15:34:59;103226.47;;;-3.53;53.19
75668;BME280;64266;48.798;44.756;2024-02-21T15:40:04;103254.66;;;-3.25;51.55
75668;BME280;64266;48.798;44.756;2024-02-21T15:45:11;103256.69;;;-3.32;52.68
75668;BME280;64266;48.798;44.756;2024-02-21T15:50:17;103274.84;;;-3.12;52.73
75668;BME280;64266;48.798;44.756;2024-02-21T15:55:21;103288.44;;;-3.07;52.18
75668;BME280;64266;48.798;44.756;2024-02-21T16:00:25;103256.41;;;-3.26;52.61
75668;BME280;64266;48.798;44.756;2024-02-21T16:05:31;103284.19;;;-3.28;52.35
75668;BME280;64266;48.798;44.756;2024-02-21T16:10:35;103260.78;;;-3.47;52.59
75668;BME280;64266;48.798;44.756;2024-02-21T16:15:39;103257.47;;;-3.30;53.71
75668;BME280;64266;48.798;44.756;2024-02-21T16:20:42;103264.44;;;-3.12;52.86
75668;BME280;64266;48.798;44.756;2024-02-21T16:25:45;103292.09;;;-2.92;53.17
75668;BME280;64266;48.798;44.756;2024-02-21T16:30:51;103246.81;;;-3.24;53.28
75668;BME280;64266;48.798;44.756;2024-02-21T16:35:56;103251.47;;;-3.12;53.21
75668;BME280;64266;48.798;44.756;2024-02-21T16:41:02;103253.53;;;-3.00;52.49
75668;BME280;64266;48.798;44.756;2024-02-21T16:46:05;103240.16;;;-3.50;52.36
75668;BME280;64266;48.798;44.756;2024-02-21T16:51:09;103289.69;;;-3.56;54.51
75668;BME280;64266;48.798;44.756;2024-02-21T16:56:13;103245.03;;;-3.83;54.14
75668;BME280;64266;48.798;44.756;2024-02-21T17:01:16;103285.09;;;-3.69;54.43
75668;BME280;64266;48.798;44.756;2024-02-21T17:06:21;103291.56;;;-3.79;54.28
75668;BME280;64266;48.798;44.756;2024-02-21T17:11:24;103242.59;;;-4.07;55.18
75668;BME280;64266;48.798;44.756;2024-02-21T17:16:31;103286.03;;;-3.92;56.37
75668;BME280;64266;48.798;44.756;2024-02-21T17:21:36;103229.34;;;-4.21;55.93
75668;BME280;64266;48.798;44.756;2024-02-21T17:26:39;103284.69;;;-3.80;55.73
75668;BME280;64266;48.798;44.756;2024-02-21T17:31:43;103179.34;;;-4.44;56.85
75668;BME280;64266;48.798;44.756;2024-02-21T17:36:48;103215.03;;;-3.88;55.30
75668;BME280;64266;48.798;44.756;2024-02-21T17:41:53;103270.38;;;-3.49;55.76
75668;BME280;64266;48.798;44.756;2024-02-21T17:46:59;103225.53;;;-3.51;54.83
75668;BME280;64266;48.798;44.756;2024-02-21T17:52:04;103265.13;;;-3.27;54.77
75668;BME280;64266;48.798;44.756;2024-02-21T17:57:08;103171.34;;;-3.77;53.93
75668;BME280;64266;48.798;44.756;2024-02-21T18:02:13;103257.22;;;-3.44;54.92
75668;BME280;64266;48.798;44.756;2024-02-21T18:07:23;103266.41;;;-3.37;55.66
75668;BME280;64266;48.798;44.756;2024-02-21T18:12:27;103231.09;;;-3.40;54.56
75668;BME280;64266;48.798;44.756;2024-02-21T18:17:30;103215.16;;;-3.32;54.05
75668;BME280;64266;48.798;44.756;2024-02-21T18:22:35;103208.72;;;-3.42;54.24
75668;BME280;64266;48.798;44.756;2024-02-21T18:27:39;103263.41;;;-3.08;54.63
75668;BME280;64266;48.798;44.756;2024-02-21T18:32:42;103187.81;;;-3.58;55.48
75668;BME280;64266;48.798;44.756;2024-02-21T18:37:46;103224.91;;;-3.37;55.03
75668;BME280;64266;48.798;44.756;2024-02-21T18:42:52;103234.47;;;-3.19;54.88
75668;BME280;64266;48.798;44.756;2024-02-21T18:47:57;103224.38;;;-3.25;53.88
75668;BME280;64266;48.798;44.756;2024-02-21T18:53:03;103205.59;;;-3.50;55.20
75668;BME280;64266;48.798;44.756;2024-02-21T18:58:07;103232.56;;;-3.34;54.37
75668;BME280;64266;48.798;44.756;2024-02-21T19:03:11;103243.72;;;-3.32;55.17
75668;BME280;64266;48.798;44.756;2024-02-21T19:08:14;103279.88;;;-3.09;55.44
75668;BME280;64266;48.798;44.756;2024-02-21T19:13:18;103255.28;;;-3.00;56.27
75668;BME280;64266;48.798;44.756;2024-02-21T19:18:23;103285.84;;;-2.68;55.52
75668;BME280;64266;48.798;44.756;2024-02-21T19:23:28;103267.56;;;-2.48;55.65
75668;BME280;64266;48.798;44.756;2024-02-21T19:28:31;103252.41;;;-2.38;55.20
75668;BME280;64266;48.798;44.756;2024-02-21T19:33:35;103256.41;;;-2.31;53.63
75668;BME280;64266;48.798;44.756;2024-02-21T19:38:39;103229.13;;;-2.58;53.30
75668;BME280;64266;48.798;44.756;2024-02-21T19:43:44;103230.59;;;-2.53;55.14
75668;BME280;64266;48.798;44.756;2024-02-21T19:48:49;103176.28;;;-2.95;53.99
75668;BME280;64266;48.798;44.756;2024-02-21T19:53:52;103232.69;;;-2.61;55.51
75668;BME280;64266;48.798;44.756;2024-02-21T19:59:15;103231.66;;;-2.76;55.37
75668;BME280;64266;48.798;44.756;2024-02-21T20:04:20;103240.41;;;-2.78;55.36
75668;BME280;64266;48.798;44.756;2024-02-21T20:09:23;103194.97;;;-3.05;55.15
75668;BME280;64266;48.798;44.756;2024-02-21T20:14:26;103223.84;;;-2.76;56.46
75668;BME280;64266;48.798;44.756;2024-02-21T20:19:30;103254.31;;;-2.60;57.03
75668;BME280;64266;48.798;44.756;2024-02-21T20:24:33;103229.53;;;-2.67;56.06
75668;BME280;64266;48.798;44.756;2024-02-21T20:29:43;103193.59;;;-2.77;56.15
75668;BME280;64266;48.798;44.756;2024-02-21T20:34:47;103202.22;;;-2.76;56.43
75668;BME280;64266;48.798;44.756;2024-02-21T20:39:51;103226.44;;;-2.76;55.38
75668;BME280;64266;48.798;44.756;2024-02-21T20:44:54;103207.84;;;-3.04;54.89
75668;BME280;64266;48.798;44.756;2024-02-21T20:49:57;103193.91;;;-3.20;56.01
75668;BME280;64266;48.798;44.756;2024-02-21T20:55:01;103249.38;;;-2.85;55.60
75668;BME280;64266;48.798;44.756;2024-02-21T21:00:08;103237.88;;;-2.98;54.55
75668;BME280;64266;48.798;44.756;2024-02-21T21:05:12;103224.19;;;-3.20;54.55
75668;BME280;64266;48.798;44.756;2024-02-21T21:10:15;103206.50;;;-3.31;55.69
75668;BME280;64266;48.798;44.756;2024-02-21T21:15:20;103224.31;;;-3.23;55.31
75668;BME280;64266;48.798;44.756;2024-02-21T21:20:23;103237.59;;;-3.11;55.48
75668;BME280;64266;48.798;44.756;2024-02-21T21:25:31;103220.03;;;-3.24;55.32
75668;BME280;64266;48.798;44.756;2024-02-21T21:30:39;103198.63;;;-3.48;55.05
75668;BME280;64266;48.798;44.756;2024-02-21T21:35:42;103226.66;;;-3.17;55.12
75668;BME280;64266;48.798;44.756;2024-02-21T21:40:49;103138.44;;;-3.56;56.20
75668;BME280;64266;48.798;44.756;2024-02-21T21:45:54;103196.09;;;-3.11;56.08
75668;BME280;64266;48.798;44.756;2024-02-21T21:50:58;103230.50;;;-2.89;56.45
75668;BME280;64266;48.798;44.756;2024-02-21T21:56:02;103233.75;;;-2.84;56.02
75668;BME280;64266;48.798;44.756;2024-02-21T22:01:12;103208.41;;;-2.97;55.04
75668;BME280;64266;48.798;44.756;2024-02-21T22:06:16;103149.56;;;-3.34;55.87
75668;BME280;64266;48.798;44.756;2024-02-21T22:11:19;103240.47;;;-2.80;56.32
75668;BME280;64266;48.798;44.756;2024-02-21T22:16:23;103209.69;;;-2.87;56.50
75668;BME280;64266;48.798;44.756;2024-02-21T22:21:28;103220.25;;;-2.73;56.87
75668;BME280;64266;48.798;44.756;2024-02-21T22:26:32;103232.34;;;-2.72;56.79
75668;BME280;64266;48.798;44.756;2024-02-21T22:31:35;103205.63;;;-2.74;56.54
75668;BME280;64266;48.798;44.756;2024-02-21T22:36:39;103191.00;;;-2.77;56.00
75668;BME280;64266;48.798;44.756;2024-02-21T22:41:42;103149.09;;;-3.05;56.79
75668;BME280;64266;48.798;44.756;2024-02-21T22:46:47;103174.91;;;-2.83;56.25
75668;BME280;64266;48.798;44.756;2024-02-21T22:51:50;103247.34;;;-2.41;56.19
75668;BME280;64266;48.798;44.756;2024-02-21T22:56:54;103241.72;;;-2.32;56.13
75668;BME280;64266;48.798;44.756;2024-02-21T23:01:57;103193.03;;;-2.64;55.84
75668;BME280;64266;48.798;44.756;2024-02-21T23:07:00;103165.69;;;-2.90;54.25
75668;BME280;64266;48.798;44.756;2024-02-21T23:12:04;103225.31;;;-2.51;55.32
75668;BME280;64266;48.798;44.756;2024-02-21T23:17:07;103197.81;;;-2.55;55.78
75668;BME280;64266;48.798;44.756;2024-02-21T23:22:10;103192.06;;;-2.62;54.69
75668;BME280;64266;48.798;44.756;2024-02-21T23:27:13;103206.94;;;-2.65;55.06
75668;BME280;64266;48.798;44.756;2024-02-21T23:32:16;103183.63;;;-2.67;55.95
75668;BME280;64266;48.798;44.756;2024-02-21T23:37:19;103132.59;;;-3.04;55.75
75668;BME280;64266;48.798;44.756;2024-02-21T23:42:22;103198.34;;;-2.67;55.14
75668;BME280;64266;48.798;44.756;2024-02-21T23:47:28;103178.47;;;-3.04;55.69
75668;BME280;64266;48.798;44.756;2024-02-21T23:52:33;103185.41;;;-3.23;56.94
75668;BME280;64266;48.798;44.756;2024-02-21T23:57:36;103215.34;;;-3.16;56.48
